createdAt,value
2022-09-28T00:00:29.593Z,98505.00
2022-09-28T00:01:31.461Z,98496.31
2022-09-28T00:02:36.125Z,98508.66
2022-09-28T00:03:37.984Z,98503.66
2022-09-28T00:04:42.337Z,98498.28
2022-09-28T00:05:44.117Z,98500.28
2022-09-28T00:06:48.937Z,98503.44
2022-09-28T00:07:50.685Z,98501.75
2022-09-28T00:08:55.020Z,98506.13
2022-09-28T00:09:56.797Z,98503.78
2022-09-28T00:11:01.427Z,98506.78
2022-09-28T00:12:06.761Z,98504.25
2022-09-28T00:13:08.595Z,98495.47
2022-09-28T00:14:13.252Z,98503.66
2022-09-28T00:15:15.065Z,98499.44
2022-09-28T00:16:20.353Z,98504.63
2022-09-28T00:17:23.788Z,98507.75
2022-09-28T00:18:28.546Z,98508.06
2022-09-28T00:19:30.335Z,98510.75
2022-09-28T00:20:34.802Z,98519.09
2022-09-28T00:21:37.174Z,98504.81
2022-09-28T00:22:41.726Z,98510.25
2022-09-28T00:23:58.412Z,98518.28
2022-09-28T00:25:02.763Z,98512.25
2022-09-28T00:26:05.048Z,98515.22
2022-09-28T00:27:09.542Z,98512.19
2022-09-28T00:28:11.304Z,98507.53
2022-09-28T00:29:23.772Z,98510.81
2022-09-28T00:30:28.117Z,98511.81
2022-09-28T00:31:32.705Z,98504.44
2022-09-28T00:32:37.281Z,98508.78
2022-09-28T00:33:40.659Z,98501.75
2022-09-28T00:34:46.265Z,98507.09
2022-09-28T00:35:55.144Z,98501.06
2022-09-28T00:36:59.497Z,98504.03
2022-09-28T00:38:02.416Z,98499.00
2022-09-28T00:39:07.949Z,98498.31
2022-09-28T00:40:09.751Z,98503.69
2022-09-28T00:41:14.101Z,98500.31
2022-09-28T00:42:19.957Z,98500.16
2022-09-28T00:43:22.360Z,98497.63
2022-09-28T00:44:29.678Z,98499.63
2022-09-28T00:45:34.076Z,98503.97
2022-09-28T00:46:35.900Z,98499.09
2022-09-28T00:47:53.285Z,98501.06
2022-09-28T00:48:56.363Z,98488.72
2022-09-28T00:50:02.696Z,98495.91
2022-09-28T00:51:05.878Z,98493.22
2022-09-28T00:52:10.445Z,98492.38
2022-09-28T00:53:17.616Z,98490.69
2022-09-28T00:54:22.006Z,98489.16
2022-09-28T00:55:49.756Z,98493.97
2022-09-28T00:56:51.521Z,98486.56
2022-09-28T00:57:56.531Z,98484.97
2022-09-28T00:58:59.073Z,98492.13
2022-09-28T01:00:03.657Z,98495.50
2022-09-28T01:01:05.526Z,98496.50
2022-09-28T01:02:10.463Z,98488.16
2022-09-28T01:03:14.310Z,98489.31
2022-09-28T01:04:18.766Z,98484.81
2022-09-28T01:05:20.546Z,98492.13
2022-09-28T01:06:27.574Z,98486.78
2022-09-28T01:07:29.416Z,98492.44
2022-09-28T01:08:34.426Z,98482.59
2022-09-28T01:09:37.368Z,98485.41
2022-09-28T01:10:43.189Z,98481.75
2022-09-28T01:11:45.067Z,98488.78
2022-09-28T01:12:49.565Z,98480.06
2022-09-28T01:13:51.741Z,98467.72
2022-09-28T01:14:56.200Z,98477.56
2022-09-28T01:16:08.247Z,98471.38
2022-09-28T01:17:16.900Z,98474.91
2022-09-28T01:18:45.957Z,98467.72
2022-09-28T01:20:04.025Z,98477.56
2022-09-28T01:21:10.475Z,98473.06
2022-09-28T01:22:21.132Z,98477.38
2022-09-28T01:23:35.433Z,98463.22
2022-09-28T01:24:42.777Z,98464.00
2022-09-28T01:25:44.619Z,98468.56
2022-09-28T01:26:48.946Z,98468.56
2022-09-28T01:27:51.711Z,98462.19
2022-09-28T01:29:02.108Z,98464.00
2022-09-28T01:30:10.222Z,98440.38
2022-09-28T01:31:13.397Z,98457.69
2022-09-28T01:32:28.859Z,98460.19
2022-09-28T01:33:40.825Z,98452.19
2022-09-28T01:34:50.149Z,98454.56
2022-09-28T01:36:33.358Z,98465.09
2022-09-28T01:37:47.416Z,98453.56
2022-09-28T01:38:54.007Z,98450.72
2022-09-28T01:39:55.803Z,98454.09
2022-09-28T01:41:01.061Z,98453.75
2022-09-28T01:42:23.169Z,98450.09
2022-09-28T01:43:28.480Z,98448.94
2022-09-28T01:44:30.509Z,98451.47
2022-09-28T01:45:40.926Z,98446.13
2022-09-28T01:46:44.931Z,98452.00
2022-09-28T01:47:51.282Z,98461.88
2022-09-28T01:48:59.617Z,98461.72
2022-09-28T01:50:07.294Z,98465.25
2022-09-28T01:51:10.751Z,98470.25
2022-09-28T01:52:22.925Z,98464.91
2022-09-28T01:53:39.385Z,98450.34
2022-09-28T01:54:45.281Z,98470.25
2022-09-28T01:55:51.057Z,98467.56
2022-09-28T01:56:54.985Z,98465.75
2022-09-28T01:58:12.188Z,98468.56
2022-09-28T01:59:15.358Z,98463.22
2022-09-28T02:00:20.763Z,98468.56
2022-09-28T02:01:29.670Z,98474.75
2022-09-28T02:02:35.151Z,98476.59
2022-09-28T02:03:39.437Z,98477.59
2022-09-28T02:04:53.873Z,98482.94
2022-09-28T02:05:59.885Z,98483.13
2022-09-28T02:07:03.075Z,98492.78
2022-09-28T02:08:26.971Z,98485.78
2022-09-28T02:09:33.719Z,98481.59
2022-09-28T02:10:41.499Z,98475.41
2022-09-28T02:11:44.230Z,98476.25
2022-09-28T02:12:51.988Z,98481.59
2022-09-28T02:13:55.292Z,98480.75
2022-09-28T02:15:01.862Z,98481.59
2022-09-28T02:16:19.318Z,98480.75
2022-09-28T02:17:21.108Z,98485.25
2022-09-28T02:18:25.906Z,98486.94
2022-09-28T02:19:28.260Z,98474.56
2022-09-28T02:20:34.065Z,98476.38
2022-09-28T02:21:36.875Z,98472.88
2022-09-28T02:22:50.341Z,98481.59
2022-09-28T02:24:12.368Z,98484.97
2022-09-28T02:25:20.342Z,98483.78
2022-09-28T02:26:23.408Z,98482.78
2022-09-28T02:27:54.084Z,98484.31
2022-09-28T02:28:55.876Z,98482.34
2022-09-28T02:30:00.277Z,98480.34
2022-09-28T02:31:02.405Z,98481.03
2022-09-28T02:32:06.910Z,98481.69
2022-09-28T02:33:28.755Z,98479.72
2022-09-28T02:34:33.360Z,98483.91
2022-09-28T02:35:35.459Z,98477.56
2022-09-28T02:36:40.438Z,98469.69
2022-09-28T02:37:42.596Z,98489.81
2022-09-28T02:38:47.672Z,98486.13
2022-09-28T02:39:49.466Z,98484.28
2022-09-28T02:41:07.664Z,98477.09
2022-09-28T02:42:15.562Z,98480.78
2022-09-28T02:43:35.050Z,98484.59
2022-09-28T02:44:45.545Z,98479.41
2022-09-28T02:45:59.548Z,98482.09
2022-09-28T02:47:20.488Z,98480.25
2022-09-28T02:48:36.165Z,98489.13
2022-09-28T02:49:52.473Z,98479.41
2022-09-28T02:51:00.221Z,98483.75
2022-09-28T02:52:23.328Z,98481.09
2022-09-28T02:53:48.369Z,98476.44
2022-09-28T02:54:52.873Z,98473.44
2022-09-28T02:55:54.708Z,98478.78
2022-09-28T02:57:11.152Z,98481.13
2022-09-28T02:58:19.417Z,98477.47
2022-09-28T02:59:40.973Z,98470.28
2022-09-28T03:00:47.895Z,98472.78
2022-09-28T03:01:52.362Z,98476.16
2022-09-28T03:02:57.296Z,98470.66
2022-09-28T03:04:07.553Z,98475.84
2022-09-28T03:05:38.425Z,98473.84
2022-09-28T03:06:52.990Z,98474.69
2022-09-28T03:08:01.312Z,98473.84
2022-09-28T03:09:05.874Z,98478.03
2022-09-28T03:10:20.116Z,98472.69
2022-09-28T03:11:22.977Z,98468.16
2022-09-28T03:12:29.405Z,98469.84
2022-09-28T03:13:31.645Z,98467.88
2022-09-28T03:14:36.973Z,98473.91
2022-09-28T03:15:38.827Z,98478.25
2022-09-28T03:16:46.031Z,98479.09
2022-09-28T03:17:47.885Z,98479.94
2022-09-28T03:18:52.693Z,98479.75
2022-09-28T03:19:54.486Z,98482.44
2022-09-28T03:20:59.557Z,98476.28
2022-09-28T03:22:01.852Z,98486.97
2022-09-28T03:23:23.959Z,98481.63
2022-09-28T03:24:26.450Z,98487.78
2022-09-28T03:25:30.898Z,98486.97
2022-09-28T03:26:33.146Z,98490.66
2022-09-28T03:27:37.563Z,98484.63
2022-09-28T03:28:39.322Z,98489.66
2022-09-28T03:29:46.131Z,98482.63
2022-09-28T03:30:47.909Z,98486.97
2022-09-28T03:31:52.363Z,98481.63
2022-09-28T03:33:00.480Z,98485.13
2022-09-28T03:34:07.251Z,98487.97
2022-09-28T03:35:09.807Z,98492.34
2022-09-28T03:36:15.193Z,98500.53
2022-09-28T03:37:17.082Z,98490.28
2022-09-28T03:38:21.633Z,98501.81
2022-09-28T03:39:26.065Z,98499.16
2022-09-28T03:40:27.948Z,98493.78
2022-09-28T03:41:32.334Z,98500.28
2022-09-28T03:42:35.811Z,98503.97
2022-09-28T03:43:40.453Z,98501.44
2022-09-28T03:44:42.284Z,98501.94
2022-09-28T03:45:46.675Z,98504.59
2022-09-28T03:46:48.435Z,98505.22
2022-09-28T03:47:53.234Z,98500.84
2022-09-28T03:48:56.589Z,98505.56
2022-09-28T03:50:01.005Z,98505.00
2022-09-28T03:51:04.582Z,98509.00
2022-09-28T03:52:09.010Z,98509.13
2022-09-28T03:53:15.277Z,98514.97
2022-09-28T03:54:17.050Z,98513.44
2022-09-28T03:55:21.436Z,98510.06
2022-09-28T03:56:23.205Z,98512.22
2022-09-28T03:57:27.669Z,98508.69
2022-09-28T03:58:29.523Z,98514.19
2022-09-28T03:59:37.425Z,98519.72
2022-09-28T04:00:39.880Z,98517.06
2022-09-28T04:01:44.296Z,98522.56
2022-09-28T04:02:46.062Z,98521.72
2022-09-28T04:03:50.642Z,98523.41
2022-09-28T04:04:52.753Z,98528.06
2022-09-28T04:05:57.274Z,98524.38
2022-09-28T04:07:00.037Z,98523.00
2022-09-28T04:08:05.678Z,98521.16
2022-09-28T04:09:07.610Z,98520.19
2022-09-28T04:10:12.102Z,98526.66
2022-09-28T04:11:14.000Z,98512.78
2022-09-28T04:12:18.402Z,98523.47
2022-09-28T04:13:20.205Z,98525.63
2022-09-28T04:14:24.766Z,98528.97
2022-09-28T04:15:26.610Z,98531.81
2022-09-28T04:16:31.095Z,98520.56
2022-09-28T04:17:40.545Z,98517.19
2022-09-28T04:18:53.350Z,98520.00
2022-09-28T04:20:20.361Z,98511.50
2022-09-28T04:21:34.723Z,98521.50
2022-09-28T04:22:45.479Z,98517.28
2022-09-28T04:23:47.511Z,98520.94
2022-09-28T04:24:51.926Z,98523.06
2022-09-28T04:25:53.757Z,98528.59
2022-09-28T04:27:18.246Z,98525.22
2022-09-28T04:28:35.200Z,98524.69
2022-09-28T04:29:38.971Z,98520.47
2022-09-28T04:30:41.038Z,98522.59
2022-09-28T04:31:50.239Z,98518.28
2022-09-28T04:32:52.634Z,98518.56
2022-09-28T04:33:57.205Z,98526.59
2022-09-28T04:35:01.668Z,98518.84
2022-09-28T04:36:03.540Z,98522.22
2022-09-28T04:37:07.919Z,98523.38
2022-09-28T04:38:09.692Z,98527.88
2022-09-28T04:39:14.940Z,98526.19
2022-09-28T04:40:19.770Z,98526.31
2022-09-28T04:41:25.425Z,98518.47
2022-09-28T04:42:27.232Z,98516.81
2022-09-28T04:43:31.717Z,98512.75
2022-09-28T04:44:33.610Z,98513.59
2022-09-28T04:45:43.944Z,98507.41
2022-09-28T04:46:47.366Z,98514.72
2022-09-28T04:48:20.450Z,98514.72
2022-09-28T04:49:39.837Z,98523.00
2022-09-28T04:50:53.074Z,98523.72
2022-09-28T04:51:59.305Z,98516.41
2022-09-28T04:53:01.395Z,98523.72
2022-09-28T04:54:05.808Z,98516.25
2022-09-28T04:55:07.874Z,98521.47
2022-09-28T04:56:16.024Z,98524.81
2022-09-28T04:57:17.974Z,98510.44
2022-09-28T04:58:23.368Z,98513.81
2022-09-28T04:59:26.134Z,98521.53
2022-09-28T05:00:36.030Z,98523.91
2022-09-28T05:01:47.672Z,98520.25
2022-09-28T05:03:10.841Z,98514.06
2022-09-28T05:04:50.956Z,98518.31
2022-09-28T05:06:17.996Z,98516.34
2022-09-28T05:07:21.040Z,98522.53
2022-09-28T05:08:26.796Z,98518.84
2022-09-28T05:09:28.880Z,98519.69
2022-09-28T05:10:33.309Z,98522.81
2022-09-28T05:11:35.129Z,98530.53
2022-09-28T05:12:41.343Z,98521.38
2022-09-28T05:13:48.922Z,98516.47
2022-09-28T05:14:51.906Z,98528.56
2022-09-28T05:16:01.756Z,98531.78
2022-09-28T05:17:08.901Z,98534.97
2022-09-28T05:18:32.359Z,98535.97
2022-09-28T05:19:38.528Z,98538.19
2022-09-28T05:20:43.665Z,98528.19
2022-09-28T05:21:45.838Z,98535.91
2022-09-28T05:22:50.475Z,98536.75
2022-09-28T05:23:52.629Z,98533.41
2022-09-28T05:24:58.328Z,98533.41
2022-09-28T05:26:12.518Z,98534.75
2022-09-28T05:27:14.846Z,98537.13
2022-09-28T05:28:27.844Z,98536.44
2022-09-28T05:29:58.270Z,98538.53
2022-09-28T05:31:21.444Z,98539.22
2022-09-28T05:32:44.688Z,98539.50
2022-09-28T05:33:54.153Z,98549.91
2022-09-28T05:35:01.193Z,98548.22
2022-09-28T05:36:14.868Z,98547.59
2022-09-28T05:37:18.046Z,98544.22
2022-09-28T05:38:25.685Z,98563.66
2022-09-28T05:39:30.068Z,98552.09
2022-09-28T05:40:32.261Z,98568.00
2022-09-28T05:41:37.354Z,98558.69
2022-09-28T05:42:40.638Z,98561.06
2022-09-28T05:43:45.758Z,98564.88
2022-09-28T05:44:47.587Z,98564.75
2022-09-28T05:45:55.637Z,98566.44
2022-09-28T05:46:57.807Z,98569.75
2022-09-28T05:48:02.211Z,98569.75
2022-09-28T05:49:04.210Z,98570.44
2022-09-28T05:50:09.521Z,98568.75
2022-09-28T05:51:14.032Z,98573.13
2022-09-28T05:52:15.826Z,98580.16
2022-09-28T05:53:20.350Z,98573.13
2022-09-28T05:54:24.506Z,98580.56
2022-09-28T05:55:29.946Z,98586.59
2022-09-28T05:56:32.097Z,98588.78
2022-09-28T05:57:36.728Z,98597.06
2022-09-28T05:58:38.908Z,98595.44
2022-09-28T05:59:43.453Z,98591.69
2022-09-28T06:00:45.474Z,98602.66
2022-09-28T06:01:49.907Z,98604.53
2022-09-28T06:03:11.415Z,98606.59
2022-09-28T06:04:14.784Z,98599.47
2022-09-28T06:05:20.772Z,98612.16
2022-09-28T06:06:25.140Z,98611.03
2022-09-28T06:07:26.999Z,98610.22
2022-09-28T06:08:33.601Z,98610.91
2022-09-28T06:09:48.363Z,98619.03
2022-09-28T06:10:56.570Z,98617.53
2022-09-28T06:11:59.344Z,98621.72
2022-09-28T06:13:18.847Z,98621.41
2022-09-28T06:14:20.614Z,98629.06
2022-09-28T06:15:25.691Z,98630.75
2022-09-28T06:16:27.539Z,98629.91
2022-09-28T06:17:31.957Z,98625.38
2022-09-28T06:18:54.709Z,98626.69
2022-09-28T06:20:39.777Z,98626.59
2022-09-28T06:22:06.124Z,98631.59
2022-09-28T06:23:16.043Z,98641.63
2022-09-28T06:24:18.474Z,98631.06
2022-09-28T06:25:24.218Z,98631.22
2022-09-28T06:26:28.901Z,98641.06
2022-09-28T06:27:30.652Z,98636.25
2022-09-28T06:28:35.188Z,98635.97
2022-09-28T06:29:37.465Z,98645.34
2022-09-28T06:30:42.458Z,98637.00
2022-09-28T06:31:47.263Z,98638.13
2022-09-28T06:32:52.660Z,98634.13
2022-09-28T06:33:57.339Z,98633.16
2022-09-28T06:34:59.178Z,98641.13
2022-09-28T06:36:04.690Z,98638.03
2022-09-28T06:37:06.497Z,98638.75
2022-09-28T06:38:11.002Z,98644.84
2022-09-28T06:39:12.783Z,98644.56
2022-09-28T06:40:17.789Z,98649.94
2022-09-28T06:41:22.241Z,98657.06
2022-09-28T06:42:24.014Z,98646.66
2022-09-28T06:43:57.614Z,98658.75
2022-09-28T06:45:31.463Z,98659.78
2022-09-28T06:46:56.216Z,98659.78
2022-09-28T06:48:01.314Z,98664.69
2022-09-28T06:49:15.095Z,98666.88
2022-09-28T06:50:45.073Z,98675.44
2022-09-28T06:52:07.097Z,98681.66
2022-09-28T06:53:34.535Z,98677.31
2022-09-28T06:54:44.105Z,98676.78
2022-09-28T06:56:11.438Z,98677.31
2022-09-28T06:57:13.274Z,98682.34
2022-09-28T06:58:19.647Z,98680.00
2022-09-28T06:59:21.540Z,98685.91
2022-09-28T07:00:26.076Z,98689.69
2022-09-28T07:01:28.484Z,98680.94
2022-09-28T07:02:43.698Z,98702.78
2022-09-28T07:04:11.896Z,98694.41
2022-09-28T07:05:48.560Z,98697.47
2022-09-28T07:07:15.881Z,98697.53
2022-09-28T07:08:39.169Z,98702.22
2022-09-28T07:09:59.855Z,98703.22
2022-09-28T07:11:20.462Z,98704.13
2022-09-28T07:12:42.315Z,98696.56
2022-09-28T07:14:00.585Z,98701.28
2022-09-28T07:15:09.137Z,98700.59
2022-09-28T07:16:13.654Z,98700.47
2022-09-28T07:17:18.773Z,98708.38
2022-09-28T07:18:20.753Z,98708.03
2022-09-28T07:19:25.158Z,98707.88
2022-09-28T07:20:27.208Z,98709.22
2022-09-28T07:21:31.620Z,98706.72
2022-09-28T07:22:43.874Z,98716.78
2022-09-28T07:23:54.292Z,98717.00
2022-09-28T07:25:01.457Z,98722.03
2022-09-28T07:26:25.733Z,98712.09
2022-09-28T07:27:48.753Z,98721.66
2022-09-28T07:29:11.853Z,98718.31
2022-09-28T07:30:36.538Z,98723.50
2022-09-28T07:32:01.218Z,98712.59
2022-09-28T07:33:06.295Z,98722.34
2022-09-28T07:34:36.027Z,98718.50
2022-09-28T07:35:44.570Z,98721.50
2022-09-28T07:36:46.921Z,98722.50
2022-09-28T07:37:51.395Z,98721.81
2022-09-28T07:38:53.243Z,98721.84
2022-09-28T07:40:10.082Z,98722.84
2022-09-28T07:41:21.627Z,98715.44
2022-09-28T07:42:30.019Z,98722.16
2022-09-28T07:43:35.452Z,98721.00
2022-09-28T07:44:41.080Z,98727.53
2022-09-28T07:45:46.065Z,98725.66
2022-09-28T07:46:50.688Z,98729.06
2022-09-28T07:48:01.460Z,98734.09
2022-09-28T07:49:27.812Z,98726.88
2022-09-28T07:51:00.126Z,98737.63
2022-09-28T07:52:13.080Z,98737.97
2022-09-28T07:53:36.281Z,98738.13
2022-09-28T07:55:07.749Z,98732.91
2022-09-28T07:56:31.075Z,98729.06
2022-09-28T07:57:47.131Z,98731.56
2022-09-28T07:58:59.596Z,98745.88
2022-09-28T08:00:22.574Z,98737.63
2022-09-28T08:01:27.292Z,98735.94
2022-09-28T08:02:33.644Z,98734.75
2022-09-28T08:03:38.079Z,98734.59
2022-09-28T08:04:40.913Z,98746.16
2022-09-28T08:05:46.965Z,98747.66
2022-09-28T08:06:48.886Z,98746.97
2022-09-28T08:07:53.333Z,98752.69
2022-09-28T08:08:57.002Z,98766.44
2022-09-28T08:10:11.309Z,98752.84
2022-09-28T08:11:16.743Z,98756.03
2022-09-28T08:12:40.852Z,98760.75
2022-09-28T08:13:55.495Z,98759.38
2022-09-28T08:15:18.337Z,98768.13
2022-09-28T08:16:49.633Z,98775.19
2022-09-28T08:18:09.847Z,98764.31
2022-09-28T08:19:12.539Z,98767.50
2022-09-28T08:20:29.484Z,98770.84
2022-09-28T08:21:49.255Z,98768.13
2022-09-28T08:22:51.032Z,98759.22
2022-09-28T08:23:55.727Z,98763.56
2022-09-28T08:24:58.030Z,98771.09
2022-09-28T08:26:02.478Z,98762.13
2022-09-28T08:27:04.319Z,98768.00
2022-09-28T08:28:10.024Z,98761.59
2022-09-28T08:29:18.809Z,98764.28
2022-09-28T08:30:29.679Z,98765.06
2022-09-28T08:32:00.801Z,98766.88
2022-09-28T08:33:26.280Z,98763.16
2022-09-28T08:34:49.105Z,98771.56
2022-09-28T08:36:13.524Z,98762.63
2022-09-28T08:37:36.900Z,98768.88
2022-09-28T08:38:59.618Z,98764.13
2022-09-28T08:40:04.892Z,98761.75
2022-09-28T08:41:52.848Z,98766.53
2022-09-28T08:43:24.514Z,98753.81
2022-09-28T08:44:57.982Z,98763.19
2022-09-28T08:46:27.000Z,98759.97
2022-09-28T08:48:10.762Z,98760.72
2022-09-28T08:49:45.154Z,98762.66
2022-09-28T08:51:09.899Z,98762.22
2022-09-28T08:52:37.005Z,98762.81
2022-09-28T08:54:08.108Z,98767.53
2022-09-28T08:55:29.052Z,98765.16
2022-09-28T08:56:46.162Z,98765.06
2022-09-28T08:57:52.504Z,98767.22
2022-09-28T08:59:07.774Z,98757.72
2022-09-28T09:00:13.256Z,98768.41
2022-09-28T09:01:16.862Z,98758.19
2022-09-28T09:02:29.607Z,98755.66
2022-09-28T09:03:47.433Z,98762.28
2022-09-28T09:05:11.207Z,98757.81
2022-09-28T09:06:31.858Z,98751.22
2022-09-28T09:07:51.878Z,98750.03
2022-09-28T09:09:06.293Z,98757.25
2022-09-28T09:10:36.638Z,98753.31
2022-09-28T09:12:04.307Z,98770.25
2022-09-28T09:13:14.111Z,98764.47
2022-09-28T09:14:29.364Z,98757.78
2022-09-28T09:15:55.207Z,98763.66
2022-09-28T09:17:46.455Z,98763.66
2022-09-28T09:19:18.842Z,98761.97
2022-09-28T09:20:51.245Z,98766.16
2022-09-28T09:22:13.554Z,98760.94
2022-09-28T09:23:34.822Z,98757.97
2022-09-28T09:24:46.945Z,98764.94
2022-09-28T09:25:54.885Z,98760.19
2022-09-28T09:27:02.545Z,98760.09
2022-09-28T09:28:29.933Z,98759.09
2022-09-28T09:29:48.559Z,98758.28
2022-09-28T09:31:26.771Z,98763.41
2022-09-28T09:32:36.995Z,98754.66
2022-09-28T09:34:01.788Z,98765.25
2022-09-28T09:35:38.104Z,98758.56
2022-09-28T09:37:06.756Z,98753.25
2022-09-28T09:38:24.006Z,98755.97
2022-09-28T09:40:13.737Z,98756.41
2022-09-28T09:41:49.297Z,98752.81
2022-09-28T09:43:12.601Z,98758.22
2022-09-28T09:44:28.164Z,98757.00
2022-09-28T09:45:48.418Z,98760.41
2022-09-28T09:47:24.010Z,98760.41
2022-09-28T09:48:34.045Z,98756.34
2022-09-28T09:49:58.181Z,98759.50
2022-09-28T09:51:03.869Z,98768.28
2022-09-28T09:52:08.265Z,98766.00
2022-09-28T09:53:10.037Z,98775.72
2022-09-28T09:54:24.359Z,98766.31
2022-09-28T09:55:29.853Z,98768.56
2022-09-28T09:57:29.825Z,98772.84
2022-09-28T09:58:44.788Z,98765.44
2022-09-28T10:00:07.893Z,98771.81
2022-09-28T10:01:41.496Z,98782.72
2022-09-28T10:02:51.938Z,98780.09
2022-09-28T10:04:17.023Z,98776.97
2022-09-28T10:05:21.140Z,98782.38
2022-09-28T10:06:30.154Z,98781.31
2022-09-28T10:07:43.242Z,98781.69
2022-09-28T10:08:48.899Z,98786.59
2022-09-28T10:09:56.508Z,98791.94
2022-09-28T10:11:15.795Z,98775.91
2022-09-28T10:12:24.648Z,98788.19
2022-09-28T10:13:26.435Z,98795.47
2022-09-28T10:14:33.062Z,98793.78
2022-09-28T10:15:45.373Z,98795.91
2022-09-28T10:16:56.211Z,98791.13
2022-09-28T10:18:22.019Z,98791.38
2022-09-28T10:19:42.027Z,98783.72
2022-09-28T10:21:05.033Z,98783.75
2022-09-28T10:22:29.913Z,98789.34
2022-09-28T10:23:34.116Z,98785.13
2022-09-28T10:24:39.686Z,98784.66
2022-09-28T10:25:41.436Z,98787.53
2022-09-28T10:26:47.367Z,98782.97
2022-09-28T10:27:52.771Z,98787.34
2022-09-28T10:28:56.104Z,98786.69
2022-09-28T10:30:10.543Z,98790.53
2022-09-28T10:31:36.019Z,98791.50
2022-09-28T10:32:43.854Z,98790.31
2022-09-28T10:33:45.733Z,98793.94
2022-09-28T10:34:51.032Z,98783.09
2022-09-28T10:35:55.423Z,98787.41
2022-09-28T10:37:01.101Z,98789.66
2022-09-28T10:38:20.458Z,98795.25
2022-09-28T10:39:38.868Z,98796.53
2022-09-28T10:40:54.360Z,98795.34
2022-09-28T10:42:12.366Z,98792.81
2022-09-28T10:43:28.696Z,98798.22
2022-09-28T10:44:37.249Z,98793.84
2022-09-28T10:46:13.963Z,98795.16
2022-09-28T10:47:23.060Z,98798.44
2022-09-28T10:48:27.504Z,98796.69
2022-09-28T10:49:32.648Z,98792.00
2022-09-28T10:50:37.459Z,98793.81
2022-09-28T10:51:49.977Z,98795.00
2022-09-28T10:53:20.262Z,98790.63
2022-09-28T10:54:43.105Z,98780.16
2022-09-28T10:55:52.050Z,98780.63
2022-09-28T10:56:57.257Z,98778.47
2022-09-28T10:58:27.395Z,98781.28
2022-09-28T10:59:31.725Z,98792.25
2022-09-28T11:00:55.717Z,98786.66
2022-09-28T11:02:02.784Z,98791.94
2022-09-28T11:03:07.314Z,98789.28
2022-09-28T11:04:18.612Z,98783.13
2022-09-28T11:05:24.059Z,98789.75
2022-09-28T11:06:32.085Z,98786.78
2022-09-28T11:07:34.352Z,98783.53
2022-09-28T11:08:42.379Z,98779.94
2022-09-28T11:09:48.791Z,98778.47
2022-09-28T11:11:03.342Z,98773.56
2022-09-28T11:12:07.883Z,98775.25
2022-09-28T11:13:13.429Z,98775.91
2022-09-28T11:14:27.561Z,98774.69
2022-09-28T11:15:35.325Z,98777.22
2022-09-28T11:16:43.135Z,98776.91
2022-09-28T11:17:45.347Z,98773.66
2022-09-28T11:18:49.990Z,98773.28
2022-09-28T11:19:52.516Z,98772.19
2022-09-28T11:21:05.278Z,98781.31
2022-09-28T11:22:29.038Z,98781.13
2022-09-28T11:23:38.016Z,98772.53
2022-09-28T11:24:53.570Z,98779.59
2022-09-28T11:25:59.364Z,98784.03
2022-09-28T11:27:03.837Z,98776.22
2022-09-28T11:28:05.719Z,98782.63
2022-09-28T11:29:21.370Z,98775.94
2022-09-28T11:30:36.001Z,98774.66
2022-09-28T11:32:06.078Z,98772.69
2022-09-28T11:33:29.889Z,98771.31
2022-09-28T11:34:59.726Z,98778.72
2022-09-28T11:36:17.581Z,98781.13
2022-09-28T11:37:22.299Z,98781.13
2022-09-28T11:38:36.478Z,98777.69
2022-09-28T11:39:57.726Z,98784.66
2022-09-28T11:40:59.515Z,98786.41
2022-09-28T11:42:23.604Z,98785.25
2022-09-28T11:43:34.302Z,98786.91
2022-09-28T11:44:48.227Z,98790.31
2022-09-28T11:46:13.757Z,98790.03
2022-09-28T11:47:30.665Z,98783.66
2022-09-28T11:48:58.433Z,98787.47
2022-09-28T11:50:22.883Z,98783.34
2022-09-28T11:51:29.807Z,98787.34
2022-09-28T11:52:34.473Z,98784.25
2022-09-28T11:53:40.060Z,98781.56
2022-09-28T11:54:47.473Z,98791.34
2022-09-28T11:56:00.049Z,98787.81
2022-09-28T11:57:02.438Z,98792.63
2022-09-28T11:58:13.472Z,98793.25
2022-09-28T11:59:18.067Z,98786.81
2022-09-28T12:00:27.289Z,98804.28
2022-09-28T12:01:45.714Z,98795.09
2022-09-28T12:03:10.077Z,98798.03
2022-09-28T12:04:14.359Z,98805.22
2022-09-28T12:05:21.154Z,98802.91
2022-09-28T12:06:51.068Z,98801.41
2022-09-28T12:08:02.431Z,98797.22
2022-09-28T12:09:30.191Z,98796.84
2022-09-28T12:11:04.756Z,98791.88
2022-09-28T12:12:32.780Z,98797.94
2022-09-28T12:13:38.434Z,98794.41
2022-09-28T12:14:42.925Z,98802.53
2022-09-28T12:17:19.249Z,98806.16
2022-09-28T12:18:43.209Z,98795.97
2022-09-28T12:20:10.622Z,98798.31
2022-09-28T12:21:18.278Z,98796.03
2022-09-28T12:22:33.263Z,98804.22
2022-09-28T12:23:35.895Z,98803.63
2022-09-28T12:24:41.463Z,98801.38
2022-09-28T12:25:48.884Z,98801.38
2022-09-28T12:27:04.419Z,98805.50
2022-09-28T12:28:07.125Z,98806.41
2022-09-28T12:29:16.090Z,98803.94
2022-09-28T12:30:25.328Z,98804.84
2022-09-28T12:31:38.286Z,98799.06
2022-09-28T12:32:45.634Z,98799.06
2022-09-28T12:33:48.561Z,98795.72
2022-09-28T12:34:53.082Z,98795.72
2022-09-28T12:36:00.912Z,98796.13
2022-09-28T12:37:08.354Z,98799.94
2022-09-28T12:38:24.840Z,98795.19
2022-09-28T12:39:56.916Z,98787.59
2022-09-28T12:41:06.644Z,98785.53
2022-09-28T12:42:31.019Z,98787.88
2022-09-28T12:43:54.669Z,98781.75
2022-09-28T12:45:02.278Z,98783.97
2022-09-28T12:46:42.400Z,98781.94
2022-09-28T12:47:55.946Z,98785.97
2022-09-28T12:49:43.629Z,98772.66
2022-09-28T12:50:38.684Z,98776.25
2022-09-28T12:51:52.363Z,98776.19
2022-09-28T12:53:02.945Z,98784.44
2022-09-28T12:54:11.215Z,98782.50
2022-09-28T12:55:15.694Z,98785.25
2022-09-28T12:56:36.733Z,98787.34
2022-09-28T12:57:44.334Z,98786.56
2022-09-28T12:59:07.194Z,98791.28
2022-09-28T13:00:22.251Z,98787.63
2022-09-28T13:01:35.877Z,98784.56
2022-09-28T13:02:51.407Z,98782.34
2022-09-28T13:04:00.672Z,98781.88
2022-09-28T13:05:20.952Z,98784.53
2022-09-28T13:06:43.772Z,98784.44
2022-09-28T13:08:00.407Z,98780.53
2022-09-28T13:09:05.100Z,98782.28
2022-09-28T13:10:11.187Z,98774.69
2022-09-28T13:11:15.664Z,98777.56
2022-09-28T13:12:28.213Z,98767.09
2022-09-28T13:13:38.701Z,98768.13
2022-09-28T13:14:46.509Z,98773.72
2022-09-28T13:16:02.672Z,98762.47
2022-09-28T13:17:25.805Z,98770.69
2022-09-28T13:18:37.412Z,98764.75
2022-09-28T13:19:52.604Z,98763.84
2022-09-28T13:21:15.170Z,98769.00
2022-09-28T13:22:25.714Z,98765.00
2022-09-28T13:23:33.057Z,98757.53
2022-09-28T13:24:35.751Z,98762.94
2022-09-28T13:25:42.486Z,98761.72
2022-09-28T13:26:47.450Z,98764.88
2022-09-28T13:27:54.097Z,98761.81
2022-09-28T13:29:03.647Z,98765.78
2022-09-28T13:30:06.525Z,98765.03
2022-09-28T13:31:10.889Z,98764.88
2022-09-28T13:32:12.916Z,98757.72
2022-09-28T13:33:19.662Z,98764.03
2022-09-28T13:34:22.578Z,98759.50
2022-09-28T13:35:27.681Z,98764.97
2022-09-28T13:36:29.560Z,98758.16
2022-09-28T13:37:34.694Z,98760.63
2022-09-28T13:38:49.963Z,98760.63
2022-09-28T13:39:56.641Z,98760.41
2022-09-28T13:41:04.543Z,98767.59
2022-09-28T13:42:09.676Z,98762.72
2022-09-28T13:43:24.097Z,98758.47
2022-09-28T13:44:37.715Z,98761.84
2022-09-28T13:45:44.780Z,98767.59
2022-09-28T13:47:04.184Z,98767.91
2022-09-28T13:48:22.797Z,98760.47
2022-09-28T13:49:25.178Z,98760.97
2022-09-28T13:50:32.607Z,98760.22
2022-09-28T13:51:42.990Z,98763.22
2022-09-28T13:52:46.090Z,98761.00